Fortunia — V2OG3 — position and weather

sailwx.info

Track history (hours):
 
Tides and Currents Weather Stations Pressure Air Temp Water Temp Dewpoint Dewpoint Depression Visibility Wind Speed Wind Dir Waves Ship Positions

Fortunia

Last reported at 2014-Oct-20 03:32 UTC. Time now 2014-Oct-22 21:41 UTC.
Position N 37°04' E 003°02'.

Length 121 m; draft 6.6 m.

Type: Ship. MMSI: 304010638.

Date/timePositionNaut miles runAvg speedWind from/ knotsBaromVisibWave heightAir tempDewpointWater temp
2014-Oct-20 03:32N 37°04' E 003°02'5310.4
2014-Oct-19 22:25N 37°55' E 002°44'910.6
2014-Oct-19 21:34N 38°04' E 002°41'1610.8
2014-Oct-19 20:06N 38°20' E 002°36'610.6
2014-Oct-19 19:33N 38°25' E 002°34'1110.5
2014-Oct-19 18:33N 38°35' E 002°30'1010.5
2014-Oct-19 17:33N 38°45' E 002°27'1010.4
2014-Oct-19 16:33N 38°55' E 002°23'1010.3
2014-Oct-19 15:33N 39°05' E 002°20'1010.3
2014-Oct-19 14:33N 39°15' E 002°16'1110.2
2014-Oct-19 13:31N 39°25' E 002°13'1110.7
2014-Oct-19 12:28N 39°36' E 002°10'1010.8
2014-Oct-19 11:33N 39°46' E 002°10'1210.5
2014-Oct-19 10:24N 39°58' E 002°10'2111.1
2014-Oct-19 08:31N 40°19' E 002°10'59 4.0
2014-Oct-18 17:29N 41°19' E 002°09'3 1.4
2014-Oct-18 15:32N 41°21' E 002°10'0 0.0
2014-Oct-18 14:30N 41°21' E 002°10'0 0.0
2014-Oct-18 12:33N 41°21' E 002°10'0 0.0
2014-Oct-18 11:12N 41°21' E 002°10'0 0.0
2014-Oct-18 10:32N 41°21' E 002°10'0 0.0
2014-Oct-18 08:16N 41°21' E 002°10'0 0.7
2014-Oct-18 07:33N 41°21' E 002°10'7 7.4
2014-Oct-18 06:33N 41°14' E 002°08'1110.5
2014-Oct-18 05:33N 41°05' E 001°59'1110.7
2014-Oct-18 04:33N 40°57' E 001°51'1110.8
2014-Oct-18 03:33N 40°48' E 001°43'1110.9
2014-Oct-18 02:33N 40°39' E 001°34'1110.7
2014-Oct-18 01:33N 40°31' E 001°26'1110.7
2014-Oct-18 00:33N 40°24' E 001°15'1110.9
2014-Oct-17 23:33N 40°18' E 001°03'1111.0
2014-Oct-17 22:33N 40°11' E 000°51'1110.9
2014-Oct-17 21:33N 40°05' E 000°40'1110.9
2014-Oct-17 20:33N 39°58' E 000°28'1410.9
2014-Oct-17 19:18N 39°49' E 000°16'910.7
2014-Oct-17 18:27N 39°42' E 000°07'1211.0
2014-Oct-17 17:24N 39°34' W 000°03'5 6.4
2014-Oct-17 16:33N 39°31' W 000°09'9 8.7
2014-Oct-17 15:33N 39°26' W 000°18'1 1.2
2014-Oct-17 14:34N 39°26' W 000°20'0 0.0
2014-Oct-17 13:26N 39°26' W 000°20'0 0.0
2014-Oct-17 12:33N 39°26' W 000°20'1 0.2
2014-Oct-17 06:31N 39°27' W 000°19'2 2.6
2014-Oct-17 05:33N 39°25' W 000°17'5610.5
2014-Oct-17 00:12N 38°39' E 000°25'812.1
2014-Oct-16 23:33N 38°33' E 000°20'1212.0
2014-Oct-16 22:33N 38°23' E 000°11'1612.2
2014-Oct-16 21:16N 38°10' E 000°00'912.3
2014-Oct-16 20:33N 38°03' W 000°06'1612.3
2014-Oct-16 19:13N 37°49' W 000°17'812.6
2014-Oct-16 18:33N 37°42' W 000°23'1312.5
2014-Oct-16 17:33N 37°32' W 000°33'1212.3
2014-Oct-16 16:33N 37°32' W 000°48'5 0.3
2014-Oct-15 22:32N 37°31' W 000°54'1111.5
2014-Oct-15 21:33N 37°29' W 000°40'1111.3
2014-Oct-15 20:33N 37°26' W 000°26'1110.7
2014-Oct-15 19:33N 37°24' W 000°13'1010.4
2014-Oct-15 18:33N 37°22' W 000°00'1010.3
2014-Oct-15 17:32N 37°20' E 000°13'  
2014-Oct-10 22:09N 36°46' E 003°04'1 1.9
2014-Oct-10 21:26N 36°46' E 003°06'1 1.6
2014-Oct-10 20:33N 36°47' E 003°06'2 1.6
2014-Oct-10 19:09N 36°49' E 003°06'4010.4
2014-Oct-10 15:20N 36°59' E 002°18'910.9
2014-Oct-10 14:33N 37°01' E 002°07'1211.7
2014-Oct-10 13:32N 37°03' E 001°53'1110.9
2014-Oct-10 12:33N 37°06' E 001°40'1110.8
2014-Oct-10 11:33N 37°08' E 001°27'1110.8
2014-Oct-10 10:31N 37°10' E 001°13'1010.6
2014-Oct-10 09:33N 37°12' E 001°00'1212.0
2014-Oct-10 08:33N 37°15' E 000°45'1110.9
2014-Oct-10 07:33N 37°17' E 000°32'1110.8
2014-Oct-10 06:33N 37°19' E 000°19'1110.9
2014-Oct-10 05:33N 37°21' E 000°05'1110.9
2014-Oct-10 04:33N 37°24' W 000°08'1110.7
2014-Oct-10 03:33N 37°26' W 000°21'  
Track history (hours):
 
Tides and Currents Weather Stations Pressure Air Temp Water Temp Dewpoint Dewpoint Depression Visibility Wind Speed Wind Dir Waves Ship Positions

Fortunia

Last reported at 2014-Oct-20 03:32 UTC. Time now 2014-Oct-22 21:41 UTC.
Position N 37°04' E 003°02'.

Length 121 m; draft 6.6 m.

Type: Ship. MMSI: 304010638.

Date/timePositionNaut miles runAvg speedWind from/ knotsBaromVisibWave heightAir tempDewpointWater temp
2014-Oct-20 03:32N 37°04' E 003°02'5310.4
2014-Oct-19 22:25N 37°55' E 002°44'910.6
2014-Oct-19 21:34N 38°04' E 002°41'1610.8
2014-Oct-19 20:06N 38°20' E 002°36'610.6
2014-Oct-19 19:33N 38°25' E 002°34'1110.5
2014-Oct-19 18:33N 38°35' E 002°30'1010.5
2014-Oct-19 17:33N 38°45' E 002°27'1010.4
2014-Oct-19 16:33N 38°55' E 002°23'1010.3
2014-Oct-19 15:33N 39°05' E 002°20'1010.3
2014-Oct-19 14:33N 39°15' E 002°16'1110.2
2014-Oct-19 13:31N 39°25' E 002°13'1110.7
2014-Oct-19 12:28N 39°36' E 002°10'1010.8
2014-Oct-19 11:33N 39°46' E 002°10'1210.5
2014-Oct-19 10:24N 39°58' E 002°10'2111.1
2014-Oct-19 08:31N 40°19' E 002°10'59 4.0
2014-Oct-18 17:29N 41°19' E 002°09'3 1.4
2014-Oct-18 15:32N 41°21' E 002°10'0 0.0
2014-Oct-18 14:30N 41°21' E 002°10'0 0.0
2014-Oct-18 12:33N 41°21' E 002°10'0 0.0
2014-Oct-18 11:12N 41°21' E 002°10'0 0.0
2014-Oct-18 10:32N 41°21' E 002°10'0 0.0
2014-Oct-18 08:16N 41°21' E 002°10'0 0.7
2014-Oct-18 07:33N 41°21' E 002°10'7 7.4
2014-Oct-18 06:33N 41°14' E 002°08'1110.5
2014-Oct-18 05:33N 41°05' E 001°59'1110.7
2014-Oct-18 04:33N 40°57' E 001°51'1110.8
2014-Oct-18 03:33N 40°48' E 001°43'1110.9
2014-Oct-18 02:33N 40°39' E 001°34'1110.7
2014-Oct-18 01:33N 40°31' E 001°26'1110.7
2014-Oct-18 00:33N 40°24' E 001°15'1110.9
2014-Oct-17 23:33N 40°18' E 001°03'1111.0
2014-Oct-17 22:33N 40°11' E 000°51'1110.9
2014-Oct-17 21:33N 40°05' E 000°40'1110.9
2014-Oct-17 20:33N 39°58' E 000°28'1410.9
2014-Oct-17 19:18N 39°49' E 000°16'910.7
2014-Oct-17 18:27N 39°42' E 000°07'1211.0
2014-Oct-17 17:24N 39°34' W 000°03'5 6.4
2014-Oct-17 16:33N 39°31' W 000°09'9 8.7
2014-Oct-17 15:33N 39°26' W 000°18'1 1.2
2014-Oct-17 14:34N 39°26' W 000°20'0 0.0
2014-Oct-17 13:26N 39°26' W 000°20'0 0.0
2014-Oct-17 12:33N 39°26' W 000°20'1 0.2
2014-Oct-17 06:31N 39°27' W 000°19'2 2.6
2014-Oct-17 05:33N 39°25' W 000°17'5610.5
2014-Oct-17 00:12N 38°39' E 000°25'812.1
2014-Oct-16 23:33N 38°33' E 000°20'1212.0
2014-Oct-16 22:33N 38°23' E 000°11'1612.2
2014-Oct-16 21:16N 38°10' E 000°00'912.3
2014-Oct-16 20:33N 38°03' W 000°06'1612.3
2014-Oct-16 19:13N 37°49' W 000°17'812.6
2014-Oct-16 18:33N 37°42' W 000°23'1312.5
2014-Oct-16 17:33N 37°32' W 000°33'1212.3
2014-Oct-16 16:33N 37°32' W 000°48'5 0.3
2014-Oct-15 22:32N 37°31' W 000°54'1111.5
2014-Oct-15 21:33N 37°29' W 000°40'1111.3
2014-Oct-15 20:33N 37°26' W 000°26'1110.7
2014-Oct-15 19:33N 37°24' W 000°13'1010.4
2014-Oct-15 18:33N 37°22' W 000°00'1010.3
2014-Oct-15 17:32N 37°20' E 000°13'  
2014-Oct-10 22:09N 36°46' E 003°04'1 1.9
2014-Oct-10 21:26N 36°46' E 003°06'1 1.6
2014-Oct-10 20:33N 36°47' E 003°06'2 1.6
2014-Oct-10 19:09N 36°49' E 003°06'4010.4
2014-Oct-10 15:20N 36°59' E 002°18'910.9
2014-Oct-10 14:33N 37°01' E 002°07'1211.7
2014-Oct-10 13:32N 37°03' E 001°53'1110.9
2014-Oct-10 12:33N 37°06' E 001°40'1110.8
2014-Oct-10 11:33N 37°08' E 001°27'1110.8
2014-Oct-10 10:31N 37°10' E 001°13'1010.6
2014-Oct-10 09:33N 37°12' E 001°00'1212.0
2014-Oct-10 08:33N 37°15' E 000°45'1110.9
2014-Oct-10 07:33N 37°17' E 000°32'1110.8
2014-Oct-10 06:33N 37°19' E 000°19'1110.9
2014-Oct-10 05:33N 37°21' E 000°05'1110.9
2014-Oct-10 04:33N 37°24' W 000°08'1110.7
2014-Oct-10 03:33N 37°26' W 000°21'  

Dump ship's entire track history